createdAt,value
2017-09-14T00:00:07.604Z,96509.75
2017-09-14T00:00:39.566Z,96512.31
2017-09-14T00:01:11.226Z,96510.14
2017-09-14T00:01:42.877Z,96501.58
2017-09-14T00:02:14.522Z,96502.41
2017-09-14T00:02:46.178Z,96502.41
2017-09-14T00:03:17.826Z,96501.96
2017-09-14T00:03:49.521Z,96492.63
2017-09-14T00:04:21.175Z,96497.30
2017-09-14T00:04:52.822Z,96489.20
2017-09-14T00:05:24.470Z,96485.81
2017-09-14T00:05:56.126Z,96488.82
2017-09-14T00:06:27.826Z,96482.84
2017-09-14T00:06:59.478Z,96479.40
2017-09-14T00:07:31.126Z,96480.23
2017-09-14T00:08:02.773Z,96484.52
2017-09-14T00:08:34.418Z,96476.39
2017-09-14T00:09:06.063Z,96474.28
2017-09-14T00:09:37.709Z,96461.11
2017-09-14T00:10:09.358Z,96458.11
2017-09-14T00:10:41.013Z,96465.01
2017-09-14T00:11:12.665Z,96470.98
2017-09-14T00:11:44.371Z,96465.81
2017-09-14T00:12:16.021Z,96459.92
2017-09-14T00:12:47.674Z,96466.28
2017-09-14T00:13:19.322Z,96463.76
2017-09-14T00:13:50.971Z,96457.78
2017-09-14T00:14:22.624Z,96452.25
2017-09-14T00:14:54.277Z,96453.98
2017-09-14T00:15:26.153Z,96448.45
2017-09-14T00:15:57.807Z,96447.50
2017-09-14T00:16:29.457Z,96452.10
2017-09-14T00:17:01.150Z,96447.76
2017-09-14T00:17:32.803Z,96451.53
2017-09-14T00:18:04.670Z,96448.11
2017-09-14T00:18:36.332Z,96446.36
2017-09-14T00:19:07.981Z,96446.36
2017-09-14T00:19:39.636Z,96445.88
2017-09-14T00:20:11.285Z,96439.94
2017-09-14T00:20:42.938Z,96445.02
2017-09-14T00:21:14.641Z,96441.63
2017-09-14T00:21:46.286Z,96437.47
2017-09-14T00:22:17.936Z,96439.55
2017-09-14T00:22:49.590Z,96444.73
2017-09-14T00:23:21.242Z,96431.02
2017-09-14T00:23:52.890Z,96433.52
2017-09-14T00:24:24.539Z,96432.20
2017-09-14T00:24:56.194Z,96438.50
2017-09-14T00:25:27.965Z,96439.45
2017-09-14T00:25:59.613Z,96440.35
2017-09-14T00:26:31.304Z,96439.91
2017-09-14T00:27:02.953Z,96431.14
2017-09-14T00:27:34.799Z,96433.16
2017-09-14T00:28:06.464Z,96431.49
2017-09-14T00:28:38.120Z,96432.35
2017-09-14T00:29:09.772Z,96433.64
2017-09-14T00:29:41.714Z,96430.27
2017-09-14T00:30:13.540Z,96434.97
2017-09-14T00:30:45.308Z,96435.00
2017-09-14T00:31:16.957Z,96427.81
2017-09-14T00:31:48.606Z,96425.70
2017-09-14T00:32:20.260Z,96428.28
2017-09-14T00:32:51.910Z,96423.20
2017-09-14T00:33:23.562Z,96430.94
2017-09-14T00:33:55.213Z,96426.33
2017-09-14T00:34:26.861Z,96429.27
2017-09-14T00:34:58.751Z,96427.58
2017-09-14T00:35:30.406Z,96432.16
2017-09-14T00:36:02.063Z,96438.61
2017-09-14T00:36:33.714Z,96426.30
2017-09-14T00:37:05.363Z,96433.20
2017-09-14T00:37:37.013Z,96438.31
2017-09-14T00:38:08.817Z,96430.64
2017-09-14T00:38:40.465Z,96433.61
2017-09-14T00:39:12.142Z,96432.37
2017-09-14T00:39:43.832Z,96431.92
2017-09-14T00:40:15.533Z,96436.20
2017-09-14T00:40:47.188Z,96433.20
2017-09-14T00:41:18.845Z,96438.31
2017-09-14T00:41:50.500Z,96425.11
2017-09-14T00:42:22.156Z,96429.39
2017-09-14T00:42:53.805Z,96422.20
2017-09-14T00:43:25.458Z,96426.84
2017-09-14T00:43:57.103Z,96424.31
2017-09-14T00:44:28.749Z,96422.20
2017-09-14T00:45:00.398Z,96416.64
2017-09-14T00:45:32.097Z,96423.48
2017-09-14T00:46:03.751Z,96416.23
2017-09-14T00:46:35.405Z,96414.59
2017-09-14T00:47:07.053Z,96419.20
2017-09-14T00:47:38.706Z,96413.73
2017-09-14T00:48:10.353Z,96413.25
2017-09-14T00:48:42.006Z,96409.83
2017-09-14T00:49:13.662Z,96410.28
2017-09-14T00:49:45.318Z,96411.97
2017-09-14T00:50:17.007Z,96407.69
2017-09-14T00:50:48.662Z,96407.72
2017-09-14T00:51:20.327Z,96407.72
2017-09-14T00:51:51.982Z,96405.67
2017-09-14T00:52:23.675Z,96403.56
2017-09-14T00:52:55.325Z,96396.31
2017-09-14T00:53:27.033Z,96401.84
2017-09-14T00:53:58.681Z,96395.48
2017-09-14T00:54:30.330Z,96392.06
2017-09-14T00:55:01.986Z,96388.22
2017-09-14T00:55:33.637Z,96387.78
2017-09-14T00:56:05.281Z,96377.55
2017-09-14T00:56:36.933Z,96378.45
2017-09-14T00:57:08.581Z,96377.59
2017-09-14T00:57:40.231Z,96374.61
2017-09-14T00:58:11.882Z,96373.30
2017-09-14T00:58:43.582Z,96374.58
2017-09-14T00:59:15.229Z,96377.14
2017-09-14T00:59:46.879Z,96364.80
2017-09-14T01:00:18.529Z,96370.33
2017-09-14T01:00:50.186Z,96365.73
2017-09-14T01:01:21.840Z,96367.42
2017-09-14T01:01:53.491Z,96378.86
2017-09-14T01:02:25.355Z,96366.53
2017-09-14T01:02:57.002Z,96373.81
2017-09-14T01:03:28.653Z,96373.75
2017-09-14T01:04:00.342Z,96369.05
2017-09-14T01:04:32.558Z,96369.88
2017-09-14T01:05:04.686Z,96377.14
2017-09-14T01:05:36.995Z,96372.89
2017-09-14T01:06:09.305Z,96366.94
2017-09-14T01:06:40.958Z,96362.69
2017-09-14T01:07:12.612Z,96366.59
2017-09-14T01:07:44.264Z,96371.25
2017-09-14T01:08:15.950Z,96366.59
2017-09-14T01:08:47.598Z,96362.75
2017-09-14T01:09:19.250Z,96368.73
2017-09-14T01:09:50.900Z,96369.56
2017-09-14T01:10:22.747Z,96365.79
2017-09-14T01:10:54.453Z,96364.48
2017-09-14T01:11:26.338Z,96370.48
2017-09-14T01:11:57.987Z,96365.37
2017-09-14T01:12:29.638Z,96364.51
2017-09-14T01:13:01.285Z,96371.77
2017-09-14T01:13:32.936Z,96370.07
2017-09-14T01:14:04.587Z,96369.20
2017-09-14T01:14:36.235Z,96370.03
2017-09-14T01:15:07.878Z,96368.38
2017-09-14T01:15:39.782Z,96361.66
2017-09-14T01:16:11.494Z,96365.50
2017-09-14T01:16:43.373Z,96368.02
2017-09-14T01:17:15.023Z,96364.19
2017-09-14T01:17:46.673Z,96365.47
2017-09-14T01:18:18.319Z,96368.44
2017-09-14T01:18:49.972Z,96364.60
2017-09-14T01:19:22.196Z,96365.05
2017-09-14T01:19:53.845Z,96369.30
2017-09-14T01:20:25.493Z,96363.77
2017-09-14T01:20:57.149Z,96363.36
2017-09-14T01:21:28.849Z,96356.96
2017-09-14T01:22:00.716Z,96357.41
2017-09-14T01:22:32.365Z,96364.22
2017-09-14T01:23:04.013Z,96361.66
2017-09-14T01:23:35.666Z,96366.77
2017-09-14T01:24:07.318Z,96359.52
2017-09-14T01:24:38.974Z,96359.08
2017-09-14T01:25:10.621Z,96359.42
2017-09-14T01:25:42.265Z,96356.52
2017-09-14T01:26:13.909Z,96358.21
2017-09-14T01:26:45.559Z,96353.10
2017-09-14T01:27:17.439Z,96361.25
2017-09-14T01:27:49.322Z,96356.96
2017-09-14T01:28:20.973Z,96352.72
2017-09-14T01:28:52.630Z,96358.69
2017-09-14T01:29:24.278Z,96365.05
2017-09-14T01:29:55.957Z,96366.80
2017-09-14T01:30:27.609Z,96371.12
2017-09-14T01:30:59.261Z,96372.33
2017-09-14T01:31:30.975Z,96380.86
2017-09-14T01:32:02.620Z,96374.95
2017-09-14T01:32:34.473Z,96380.42
2017-09-14T01:33:06.121Z,96387.26
2017-09-14T01:33:37.766Z,96376.17
2017-09-14T01:34:09.414Z,96375.34
2017-09-14T01:34:41.058Z,96381.28
2017-09-14T01:35:12.706Z,96381.70
2017-09-14T01:35:44.354Z,96380.06
2017-09-14T01:36:16.002Z,96384.28
2017-09-14T01:36:47.915Z,96386.45
2017-09-14T01:37:19.606Z,96395.40
2017-09-14T01:37:51.253Z,96390.67
2017-09-14T01:38:22.905Z,96388.63
2017-09-14T01:38:54.555Z,96399.23
2017-09-14T01:39:26.434Z,96397.98
2017-09-14T01:39:58.085Z,96399.27
2017-09-14T01:40:29.733Z,96401.41
2017-09-14T01:41:01.425Z,96403.87
2017-09-14T01:41:33.077Z,96413.23
2017-09-14T01:42:04.759Z,96419.30
2017-09-14T01:42:36.412Z,96415.85
2017-09-14T01:43:08.063Z,96425.60
2017-09-14T01:43:39.710Z,96412.76
2017-09-14T01:44:11.360Z,96409.38
2017-09-14T01:44:43.010Z,96414.48
2017-09-14T01:45:14.666Z,96407.70
2017-09-14T01:45:46.443Z,96404.28
2017-09-14T01:46:18.097Z,96403.45
2017-09-14T01:46:49.747Z,96406.84
2017-09-14T01:47:21.370Z,96405.35
2017-09-14T01:47:53.030Z,96406.39
2017-09-14T01:48:24.677Z,96405.02
2017-09-14T01:48:56.323Z,96411.37
2017-09-14T01:49:27.973Z,96414.80
2017-09-14T01:49:59.617Z,96416.10
2017-09-14T01:50:31.265Z,96419.59
2017-09-14T01:51:02.917Z,96417.89
2017-09-14T01:51:34.620Z,96412.36
2017-09-14T01:52:06.269Z,96420.89
2017-09-14T01:52:37.920Z,96420.92
2017-09-14T01:53:09.565Z,96423.06
2017-09-14T01:53:41.209Z,96434.63
2017-09-14T01:54:12.857Z,96430.86
2017-09-14T01:54:44.507Z,96431.69
2017-09-14T01:55:16.157Z,96422.27
2017-09-14T01:55:47.802Z,96423.54
2017-09-14T01:56:19.587Z,96427.73
2017-09-14T01:56:51.285Z,96433.65
2017-09-14T01:57:23.136Z,96431.12
2017-09-14T01:57:54.793Z,96423.42
2017-09-14T01:58:26.447Z,96430.58
2017-09-14T01:58:58.411Z,96433.55
2017-09-14T01:59:30.062Z,96435.22
2017-09-14T02:00:01.713Z,96436.53
2017-09-14T02:00:33.367Z,96434.39
2017-09-14T02:01:05.018Z,96436.11
2017-09-14T02:01:36.670Z,96433.14
2017-09-14T02:02:08.548Z,96430.64
2017-09-14T02:02:40.249Z,96430.64
2017-09-14T02:03:11.893Z,96435.28
2017-09-14T02:03:43.533Z,96432.34
2017-09-14T02:04:15.176Z,96434.42
2017-09-14T02:04:46.838Z,96434.48
2017-09-14T02:05:18.482Z,96434.48
2017-09-14T02:05:50.371Z,96438.31
2017-09-14T02:06:22.021Z,96442.56
2017-09-14T02:06:53.665Z,96444.29
2017-09-14T02:07:25.309Z,96440.48
2017-09-14T02:07:56.993Z,96445.59
2017-09-14T02:08:28.638Z,96444.34
2017-09-14T02:09:00.298Z,96444.80
2017-09-14T02:09:32.170Z,96444.34
2017-09-14T02:10:03.821Z,96441.86
2017-09-14T02:10:35.465Z,96447.35
2017-09-14T02:11:07.114Z,96444.41
2017-09-14T02:11:38.769Z,96441.80
2017-09-14T02:12:10.417Z,96448.19
2017-09-14T02:12:42.070Z,96442.23
2017-09-14T02:13:13.775Z,96453.74
2017-09-14T02:13:45.429Z,96444.44
2017-09-14T02:14:17.038Z,96450.80
2017-09-14T02:14:48.898Z,96448.16
2017-09-14T02:15:20.554Z,96450.27
2017-09-14T02:15:52.202Z,96455.34
2017-09-14T02:16:23.854Z,96462.60
2017-09-14T02:16:55.500Z,96456.66
2017-09-14T02:17:27.145Z,96460.94
2017-09-14T02:17:58.793Z,96457.58
2017-09-14T02:18:30.445Z,96453.74
2017-09-14T02:19:02.154Z,96451.25
2017-09-14T02:19:33.797Z,96457.25
2017-09-14T02:20:05.445Z,96447.89
2017-09-14T02:20:37.098Z,96453.00
2017-09-14T02:21:08.755Z,96455.63
2017-09-14T02:21:40.410Z,96442.00
2017-09-14T02:22:12.062Z,96438.62
2017-09-14T02:22:43.710Z,96441.56
2017-09-14T02:23:15.475Z,96433.53
2017-09-14T02:23:47.130Z,96438.17
2017-09-14T02:24:19.065Z,96433.09
2017-09-14T02:24:50.714Z,96439.03
2017-09-14T02:25:22.367Z,96437.37
2017-09-14T02:25:54.016Z,96427.59
2017-09-14T02:26:25.661Z,96431.06
2017-09-14T02:26:57.320Z,96429.38
2017-09-14T02:27:28.972Z,96427.17
2017-09-14T02:28:00.624Z,96424.67
2017-09-14T02:28:32.282Z,96426.81
2017-09-14T02:29:03.937Z,96435.73
2017-09-14T02:29:35.627Z,96435.32
2017-09-14T02:30:07.282Z,96430.20
2017-09-14T02:30:38.925Z,96419.59
2017-09-14T02:31:10.721Z,96420.91
2017-09-14T02:31:42.374Z,96419.63
2017-09-14T02:32:14.017Z,96418.77
2017-09-14T02:32:45.684Z,96412.81
2017-09-14T02:33:17.342Z,96409.05
2017-09-14T02:33:49.036Z,96408.63
2017-09-14T02:34:20.692Z,96409.48
2017-09-14T02:34:52.398Z,96403.16
2017-09-14T02:35:24.041Z,96410.80
2017-09-14T02:35:55.697Z,96404.86
2017-09-14T02:36:27.351Z,96406.94
2017-09-14T02:36:59.011Z,96412.91
2017-09-14T02:37:30.663Z,96406.55
2017-09-14T02:38:02.329Z,96403.99
2017-09-14T02:38:33.994Z,96407.44
2017-09-14T02:39:05.666Z,96398.08
2017-09-14T02:39:37.314Z,96393.83
2017-09-14T02:40:09.244Z,96393.83
2017-09-14T02:40:40.893Z,96401.73
2017-09-14T02:41:12.546Z,96396.82
2017-09-14T02:41:44.197Z,96396.19
2017-09-14T02:42:15.853Z,96402.17
2017-09-14T02:42:47.504Z,96393.16
2017-09-14T02:43:19.154Z,96396.47
2017-09-14T02:43:50.806Z,96396.33
2017-09-14T02:44:22.460Z,96387.27
2017-09-14T02:44:54.123Z,96393.52
2017-09-14T02:45:25.970Z,96386.06
2017-09-14T02:45:57.623Z,96392.59
2017-09-14T02:46:29.274Z,96394.50
2017-09-14T02:47:01.204Z,96383.21
2017-09-14T02:47:32.853Z,96388.50
2017-09-14T02:48:04.804Z,96394.12
2017-09-14T02:48:36.457Z,96396.83
2017-09-14T02:49:08.107Z,96399.14
2017-09-14T02:49:39.758Z,96402.28
2017-09-14T02:50:11.413Z,96407.55
2017-09-14T02:50:43.065Z,96407.57
2017-09-14T02:51:14.743Z,96407.69
2017-09-14T02:51:46.405Z,96405.64
2017-09-14T02:52:18.054Z,96406.97
2017-09-14T02:52:49.721Z,96405.91
2017-09-14T02:53:21.380Z,96405.66
2017-09-14T02:53:53.162Z,96396.72
2017-09-14T02:54:24.850Z,96391.23
2017-09-14T02:54:56.505Z,96388.27
2017-09-14T02:55:28.395Z,96386.55
2017-09-14T02:56:00.041Z,96381.91
2017-09-14T02:56:31.688Z,96377.03
2017-09-14T02:57:03.339Z,96373.61
2017-09-14T02:57:34.991Z,96365.17
2017-09-14T02:58:06.651Z,96364.44
2017-09-14T02:58:38.307Z,96363.60
2017-09-14T02:59:09.961Z,96360.41
2017-09-14T02:59:41.666Z,96368.84
2017-09-14T03:00:13.311Z,96375.25
2017-09-14T03:00:44.964Z,96379.95
2017-09-14T03:01:16.614Z,96377.45
2017-09-14T03:01:48.258Z,96379.17
2017-09-14T03:02:19.923Z,96373.65
2017-09-14T03:02:51.574Z,96367.70
2017-09-14T03:03:23.222Z,96362.24
2017-09-14T03:03:54.872Z,96362.24
2017-09-14T03:04:26.517Z,96361.83
2017-09-14T03:04:58.213Z,96363.55
2017-09-14T03:05:29.899Z,96357.64
2017-09-14T03:06:01.549Z,96354.64
2017-09-14T03:06:33.204Z,96357.22
2017-09-14T03:07:04.854Z,96350.80
2017-09-14T03:07:36.514Z,96355.14
2017-09-14T03:08:08.174Z,96352.53
2017-09-14T03:08:39.822Z,96344.06
2017-09-14T03:09:11.702Z,96345.34
2017-09-14T03:09:43.353Z,96348.70
2017-09-14T03:10:15.014Z,96345.78
2017-09-14T03:10:46.663Z,96343.65
2017-09-14T03:11:18.324Z,96331.73
2017-09-14T03:11:49.974Z,96328.32
2017-09-14T03:12:21.630Z,96318.10
2017-09-14T03:12:53.281Z,96324.48
2017-09-14T03:13:25.141Z,96325.28
2017-09-14T03:13:56.790Z,96327.40
2017-09-14T03:14:28.437Z,96322.70
2017-09-14T03:15:00.335Z,96325.23
2017-09-14T03:15:32.017Z,96326.92
2017-09-14T03:16:03.665Z,96320.50
2017-09-14T03:16:35.311Z,96315.75
2017-09-14T03:17:06.966Z,96318.72
2017-09-14T03:17:38.618Z,96317.47
2017-09-14T03:18:10.266Z,96313.22
2017-09-14T03:18:41.913Z,96317.89
2017-09-14T03:19:13.564Z,96317.47
2017-09-14T03:19:45.210Z,96323.06
2017-09-14T03:20:16.914Z,96317.53
2017-09-14T03:20:48.561Z,96315.39
2017-09-14T03:21:20.212Z,96311.17
2017-09-14T03:21:51.865Z,96304.34
2017-09-14T03:22:23.522Z,96307.34
2017-09-14T03:22:55.170Z,96296.71
2017-09-14T03:23:26.826Z,96301.85
2017-09-14T03:23:58.597Z,96296.71
2017-09-14T03:24:30.250Z,96286.94
2017-09-14T03:25:01.893Z,96282.27
2017-09-14T03:25:33.806Z,96285.69
2017-09-14T03:26:05.464Z,96287.45
2017-09-14T03:26:37.118Z,96281.50
2017-09-14T03:27:08.765Z,96279.39
2017-09-14T03:27:40.420Z,96275.12
2017-09-14T03:28:12.074Z,96274.28
2017-09-14T03:28:43.725Z,96274.70
2017-09-14T03:29:15.378Z,96276.84
2017-09-14T03:29:47.025Z,96272.18
2017-09-14T03:30:18.676Z,96267.99
2017-09-14T03:30:50.370Z,96273.48
2017-09-14T03:31:22.026Z,96268.38
2017-09-14T03:31:53.669Z,96271.41
2017-09-14T03:32:25.337Z,96273.55
2017-09-14T03:32:57.121Z,96268.86
2017-09-14T03:33:28.773Z,96281.22
2017-09-14T03:34:00.425Z,96279.11
2017-09-14T03:34:32.088Z,96278.27
2017-09-14T03:35:03.756Z,96283.35
2017-09-14T03:35:35.601Z,96282.97
2017-09-14T03:36:07.275Z,96287.63
2017-09-14T03:36:38.922Z,96282.52
2017-09-14T03:37:10.583Z,96272.75
2017-09-14T03:37:42.226Z,96273.67
2017-09-14T03:38:13.873Z,96275.75
2017-09-14T03:38:45.518Z,96276.23
2017-09-14T03:39:17.174Z,96277.50
2017-09-14T03:39:48.821Z,96274.95
2017-09-14T03:40:20.473Z,96279.67
2017-09-14T03:40:52.123Z,96281.37
2017-09-14T03:41:24.005Z,96292.00
2017-09-14T03:41:55.662Z,96288.20
2017-09-14T03:42:27.373Z,96298.83
2017-09-14T03:42:59.034Z,96297.23
2017-09-14T03:43:30.681Z,96294.61
2017-09-14T03:44:02.334Z,96301.83
2017-09-14T03:44:33.987Z,96306.58
2017-09-14T03:45:05.651Z,96305.75
2017-09-14T03:45:37.303Z,96299.31
2017-09-14T03:46:08.968Z,96301.92
2017-09-14T03:46:40.733Z,96301.06
2017-09-14T03:47:12.385Z,96298.53
2017-09-14T03:47:44.099Z,96310.48
2017-09-14T03:48:15.965Z,96311.75
2017-09-14T03:48:47.615Z,96308.78
2017-09-14T03:49:19.274Z,96307.09
2017-09-14T03:49:50.927Z,96297.73
2017-09-14T03:50:22.581Z,96309.30
2017-09-14T03:50:54.236Z,96306.73
2017-09-14T03:51:25.891Z,96309.73
2017-09-14T03:51:57.543Z,96307.19
2017-09-14T03:52:29.199Z,96311.02
2017-09-14T03:53:00.902Z,96312.30
2017-09-14T03:53:32.554Z,96311.45
2017-09-14T03:54:04.210Z,96302.97
2017-09-14T03:54:35.974Z,96305.94
2017-09-14T03:55:07.626Z,96311.91
2017-09-14T03:55:39.283Z,96303.38
2017-09-14T03:56:10.936Z,96305.94
2017-09-14T03:56:42.585Z,96311.97
2017-09-14T03:57:14.492Z,96309.00
2017-09-14T03:57:46.144Z,96308.14
2017-09-14T03:58:17.858Z,96307.30
2017-09-14T03:58:49.724Z,96312.00
2017-09-14T03:59:21.390Z,96318.80
2017-09-14T03:59:53.057Z,96313.27
2017-09-14T04:00:24.732Z,96311.61
2017-09-14T04:00:56.598Z,96310.75
2017-09-14T04:01:28.250Z,96295.42
2017-09-14T04:01:59.901Z,96303.50
2017-09-14T04:02:31.553Z,96302.25
2017-09-14T04:03:03.210Z,96305.23
2017-09-14T04:03:34.921Z,96296.73
2017-09-14T04:04:06.573Z,96300.14
2017-09-14T04:04:38.221Z,96288.27
2017-09-14T04:05:09.832Z,96282.33
2017-09-14T04:05:41.490Z,96285.30
2017-09-14T04:06:13.134Z,96281.50
2017-09-14T04:06:44.798Z,96284.91
2017-09-14T04:07:16.473Z,96287.05
2017-09-14T04:07:48.127Z,96296.02
2017-09-14T04:08:19.895Z,96298.96
2017-09-14T04:08:51.590Z,96304.93
2017-09-14T04:09:23.241Z,96301.96
2017-09-14T04:09:54.905Z,96298.58
2017-09-14T04:10:26.560Z,96296.08
2017-09-14T04:10:58.268Z,96295.61
2017-09-14T04:11:29.993Z,96294.74
2017-09-14T04:12:01.649Z,96300.33
2017-09-14T04:12:33.301Z,96297.77
2017-09-14T04:13:04.961Z,96291.42
2017-09-14T04:13:36.616Z,96291.45
2017-09-14T04:14:08.273Z,96299.08
2017-09-14T04:14:39.922Z,96302.05
2017-09-14T04:15:11.603Z,96297.39
2017-09-14T04:15:43.407Z,96305.05
2017-09-14T04:16:15.117Z,96307.63
2017-09-14T04:16:46.979Z,96312.30
2017-09-14T04:17:18.637Z,96313.60
2017-09-14T04:17:50.295Z,96304.25
2017-09-14T04:18:21.948Z,96311.14
2017-09-14T04:18:53.761Z,96312.33
2017-09-14T04:19:25.439Z,96306.42
2017-09-14T04:19:57.088Z,96307.70
2017-09-14T04:20:28.748Z,96310.63
2017-09-14T04:21:00.405Z,96301.78
2017-09-14T04:21:32.070Z,96302.62
2017-09-14T04:22:03.736Z,96293.27
2017-09-14T04:22:35.386Z,96303.06
2017-09-14T04:23:07.108Z,96296.27
2017-09-14T04:23:38.768Z,96299.67
2017-09-14T04:24:10.419Z,96306.92
2017-09-14T04:24:42.082Z,96303.92
2017-09-14T04:25:13.737Z,96307.34
2017-09-14T04:25:45.385Z,96299.33
2017-09-14T04:26:17.037Z,96306.51
2017-09-14T04:26:48.694Z,96309.12
2017-09-14T04:27:20.345Z,96313.37
2017-09-14T04:27:52.001Z,96316.30
2017-09-14T04:28:23.732Z,96310.40
2017-09-14T04:28:55.386Z,96312.09
2017-09-14T04:29:27.038Z,96317.20
2017-09-14T04:29:58.693Z,96309.98
2017-09-14T04:30:30.349Z,96322.31
2017-09-14T04:31:02.009Z,96324.03
2017-09-14T04:31:33.823Z,96333.38
2017-09-14T04:32:05.622Z,96323.61
2017-09-14T04:32:37.282Z,96320.64
2017-09-14T04:33:08.940Z,96326.16
2017-09-14T04:33:40.832Z,96324.06
2017-09-14T04:34:13.087Z,96328.34
2017-09-14T04:34:44.761Z,96330.03
2017-09-14T04:35:16.417Z,96333.44
2017-09-14T04:35:48.074Z,96337.27
2017-09-14T04:36:19.730Z,96336.00
2017-09-14T04:36:51.386Z,96335.16
2017-09-14T04:37:23.817Z,96338.55
2017-09-14T04:37:55.508Z,96338.58
2017-09-14T04:38:27.440Z,96345.38
2017-09-14T04:38:59.147Z,96341.96
2017-09-14T04:39:30.804Z,96344.96
2017-09-14T04:40:02.465Z,96352.23
2017-09-14T04:40:34.250Z,96359.90
2017-09-14T04:41:05.921Z,96358.63
2017-09-14T04:41:37.578Z,96371.39
2017-09-14T04:42:09.251Z,96373.95
2017-09-14T04:42:40.918Z,96379.91
2017-09-14T04:43:12.571Z,96376.52
2017-09-14T04:43:44.187Z,96379.52
2017-09-14T04:44:16.133Z,96385.46
2017-09-14T04:44:47.794Z,96388.05
2017-09-14T04:45:19.495Z,96385.88
2017-09-14T04:45:51.152Z,96392.70
2017-09-14T04:46:22.793Z,96381.87
2017-09-14T04:46:54.640Z,96391.91
2017-09-14T04:47:26.361Z,96390.59
2017-09-14T04:47:58.014Z,96393.57
2017-09-14T04:48:29.903Z,96391.91
2017-09-14T04:49:02.641Z,96389.77
2017-09-14T04:49:34.449Z,96393.98
2017-09-14T04:50:06.100Z,96391.05
2017-09-14T04:50:37.757Z,96391.91
2017-09-14T04:51:09.646Z,96398.77
2017-09-14T04:51:41.298Z,96401.26
2017-09-14T04:52:12.960Z,96403.81
2017-09-14T04:52:44.848Z,96411.89
2017-09-14T04:53:16.518Z,96408.03
2017-09-14T04:53:48.183Z,96408.86
2017-09-14T04:54:19.865Z,96406.75
2017-09-14T04:54:51.557Z,96410.17
2017-09-14T04:55:23.210Z,96408.12
2017-09-14T04:55:54.862Z,96409.34
2017-09-14T04:56:26.557Z,96411.05
2017-09-14T04:56:58.226Z,96420.38
2017-09-14T04:57:29.882Z,96415.30
2017-09-14T04:58:01.530Z,96416.58
2017-09-14T04:58:33.186Z,96419.97
2017-09-14T04:59:04.850Z,96417.00
2017-09-14T04:59:36.520Z,96410.20
2017-09-14T05:00:08.173Z,96410.61
2017-09-14T05:00:39.825Z,96413.14
2017-09-14T05:01:11.517Z,96409.78
2017-09-14T05:01:43.170Z,96411.03
2017-09-14T05:02:14.923Z,96414.00
2017-09-14T05:02:46.586Z,96410.20
2017-09-14T05:03:18.248Z,96407.22
2017-09-14T05:03:49.945Z,96406.01
2017-09-14T05:04:21.599Z,96409.34
2017-09-14T05:04:53.438Z,96407.20
2017-09-14T05:05:25.143Z,96409.78
2017-09-14T05:05:56.836Z,96411.05
2017-09-14T05:06:28.580Z,96408.50
2017-09-14T05:07:00.433Z,96415.28
2017-09-14T05:07:32.090Z,96414.44
2017-09-14T05:08:03.785Z,96408.50
2017-09-14T05:08:35.673Z,96405.95
2017-09-14T05:09:07.343Z,96402.17
2017-09-14T05:09:39.002Z,96405.95
2017-09-14T05:10:10.658Z,96406.01
2017-09-14T05:10:42.312Z,96408.12
2017-09-14T05:11:14.188Z,96401.31
2017-09-14T05:11:45.842Z,96399.62
2017-09-14T05:12:17.501Z,96398.34
2017-09-14T05:12:49.160Z,96396.66
2017-09-14T05:13:20.821Z,96395.35
2017-09-14T05:13:52.478Z,96395.37
2017-09-14T05:14:24.311Z,96397.08
2017-09-14T05:14:55.984Z,96389.86
2017-09-14T05:15:27.641Z,96384.75
2017-09-14T05:15:59.289Z,96381.75
2017-09-14T05:16:30.946Z,96373.26
2017-09-14T05:17:02.601Z,96375.37
2017-09-14T05:17:34.266Z,96369.84
2017-09-14T05:18:05.978Z,96366.05
2017-09-14T05:18:37.636Z,96364.32
2017-09-14T05:19:09.302Z,96372.84
2017-09-14T05:19:41.073Z,96371.15
2017-09-14T05:20:12.753Z,96377.09
2017-09-14T05:20:44.411Z,96376.64
2017-09-14T05:21:16.063Z,96367.70
2017-09-14T05:21:47.947Z,96370.70
2017-09-14T05:22:19.611Z,96371.15
2017-09-14T05:22:51.539Z,96368.56
2017-09-14T05:23:23.263Z,96366.88
2017-09-14T05:23:54.932Z,96365.63
2017-09-14T05:24:26.585Z,96377.50
2017-09-14T05:24:58.268Z,96376.67
2017-09-14T05:25:30.055Z,96371.98
2017-09-14T05:26:01.715Z,96373.70
2017-09-14T05:26:33.376Z,96366.05
2017-09-14T05:27:05.031Z,96370.28
2017-09-14T05:27:36.708Z,96368.59
2017-09-14T05:28:08.363Z,96374.56
2017-09-14T05:28:40.052Z,96368.20
2017-09-14T05:29:11.856Z,96373.31
2017-09-14T05:29:43.510Z,96380.17
2017-09-14T05:30:15.174Z,96383.14
2017-09-14T05:30:46.826Z,96389.91
2017-09-14T05:31:18.480Z,96392.08
2017-09-14T05:31:50.166Z,96399.77
2017-09-14T05:32:21.864Z,96401.47
2017-09-14T05:32:53.517Z,96402.73
2017-09-14T05:33:25.301Z,96397.66
2017-09-14T05:33:56.969Z,96390.42
2017-09-14T05:34:28.622Z,96390.00
2017-09-14T05:35:00.278Z,96387.03
2017-09-14T05:35:31.935Z,96378.95
2017-09-14T05:36:03.591Z,96385.75
2017-09-14T05:36:35.252Z,96382.78
2017-09-14T05:37:06.906Z,96379.81
2017-09-14T05:37:38.553Z,96376.55
2017-09-14T05:38:10.210Z,96384.06
2017-09-14T05:38:41.861Z,96383.64
2017-09-14T05:39:13.513Z,96375.16
2017-09-14T05:39:45.309Z,96381.53
2017-09-14T05:40:16.962Z,96391.30
2017-09-14T05:40:48.620Z,96400.66
2017-09-14T05:41:20.274Z,96404.93
2017-09-14T05:41:51.924Z,96404.13
2017-09-14T05:42:23.573Z,96396.47
2017-09-14T05:42:55.276Z,96393.92
2017-09-14T05:43:26.925Z,96393.50
2017-09-14T05:43:58.581Z,96394.36
2017-09-14T05:44:30.238Z,96393.02
2017-09-14T05:45:02.025Z,96391.36
2017-09-14T05:45:33.678Z,96386.28
2017-09-14T05:46:05.326Z,96378.63
2017-09-14T05:46:36.989Z,96379.93
2017-09-14T05:47:08.663Z,96376.52
2017-09-14T05:47:40.513Z,96382.04
2017-09-14T05:48:12.236Z,96391.39
2017-09-14T05:48:43.896Z,96388.00
2017-09-14T05:49:15.733Z,96394.84
2017-09-14T05:49:47.426Z,96398.66
2017-09-14T05:50:19.087Z,96390.56
2017-09-14T05:50:50.977Z,96392.70
2017-09-14T05:51:22.661Z,96393.56
2017-09-14T05:51:54.326Z,96393.97
2017-09-14T05:52:25.946Z,96391.00
2017-09-14T05:52:57.609Z,96388.90
2017-09-14T05:53:29.303Z,96395.70
2017-09-14T05:54:01.177Z,96391.00
2017-09-14T05:54:32.838Z,96395.70
2017-09-14T05:55:04.494Z,96402.05
2017-09-14T05:55:36.145Z,96395.66
2017-09-14T05:56:07.855Z,96399.08
2017-09-14T05:56:39.509Z,96402.02
2017-09-14T05:57:11.175Z,96397.77
2017-09-14T05:57:42.842Z,96399.05
2017-09-14T05:58:14.618Z,96403.74
2017-09-14T05:58:46.267Z,96406.69
2017-09-14T05:59:17.925Z,96401.19
2017-09-14T05:59:49.584Z,96404.58
2017-09-14T06:00:21.237Z,96406.71
2017-09-14T06:00:52.894Z,96402.05
2017-09-14T06:01:24.610Z,96408.44
2017-09-14T06:01:56.281Z,96396.55
2017-09-14T06:02:28.062Z,96408.02
2017-09-14T06:02:59.715Z,96402.94
2017-09-14T06:03:31.365Z,96401.30
2017-09-14T06:04:03.017Z,96402.58
2017-09-14T06:04:34.666Z,96389.41
2017-09-14T06:05:06.315Z,96394.06
2017-09-14T06:05:37.970Z,96398.34
2017-09-14T06:06:09.622Z,96389.01
2017-09-14T06:06:41.317Z,96397.09
2017-09-14T06:07:12.974Z,96387.73
2017-09-14T06:07:44.623Z,96391.13
2017-09-14T06:08:16.276Z,96386.45
2017-09-14T06:08:47.931Z,96382.63
2017-09-14T06:09:19.712Z,96389.94
2017-09-14T06:09:51.595Z,96397.53
2017-09-14T06:10:23.238Z,96405.19
2017-09-14T06:10:54.881Z,96406.47
2017-09-14T06:11:26.586Z,96411.16
2017-09-14T06:11:58.306Z,96416.68